Time;durP1;ratioP1;P1;durP2;ratioP2;P2;SDS_P1;SDS_P2;PMS_P1;PMS_P2;Temp;Humidity;BMP_temperature;BMP_pressure;BME280_temperature;BME280_humidity;BME280_pressure;Samples;Min_cycle;Max_cycle;Signal;HPM_P1;HPM_P2
2022/10/29 00:02:14;;;;;;;18.98;7.47;;;17.00;99.90;;;;;;5035788;28;20073;-69
2022/10/29 00:04:40;;;;;;;20.98;7.60;;;16.90;99.90;;;;;;5036330;28;20022;-69
2022/10/29 00:07:06;;;;;;;21.88;7.85;;;16.90;99.90;;;;;;5035865;28;20026;-70
2022/10/29 00:09:34;;;;;;;15.85;6.65;;;16.90;99.90;;;;;;5035067;28;20027;-68
2022/10/29 00:12:00;;;;;;;19.27;7.55;;;16.90;99.90;;;;;;5033541;28;20075;-69
2022/10/29 00:14:26;;;;;;;15.95;7.05;;;16.90;99.90;;;;;;5034933;28;20486;-69
2022/10/29 00:16:52;;;;;;;18.55;6.90;;;16.90;99.90;;;;;;5034571;28;20089;-70
2022/10/29 00:19:18;;;;;;;15.45;7.00;;;16.80;99.90;;;;;;5034694;28;20554;-69
2022/10/29 00:21:44;;;;;;;20.33;7.95;;;16.80;99.90;;;;;;5034510;28;20101;-68
2022/10/29 00:24:10;;;;;;;17.10;7.13;;;16.80;99.90;;;;;;5033283;28;20026;-69
2022/10/29 00:26:36;;;;;;;21.35;8.60;;;16.80;99.90;;;;;;5034305;28;20072;-69
2022/10/29 00:29:02;;;;;;;20.02;7.78;;;16.80;99.90;;;;;;5033196;28;20026;-69
2022/10/29 00:31:30;;;;;;;23.00;8.25;;;16.80;99.90;;;;;;5016862;28;20054;-69
2022/10/29 00:33:58;;;;;;;19.67;8.02;;;16.80;99.90;;;;;;5033515;28;20029;-69
2022/10/29 00:36:27;;;;;;;15.05;8.00;;;16.80;99.90;;;;;;5033997;28;20310;-69
2022/10/29 00:38:54;;;;;;;19.02;7.95;;;16.80;99.90;;;;;;5035031;28;20085;-69
2022/10/29 00:41:24;;;;;;;17.30;7.45;;;16.70;99.90;;;;;;5033242;28;20501;-69
2022/10/29 00:44:11;;;;;;;17.25;6.90;;;16.80;99.90;;;;;;5034150;28;20041;-69
2022/10/29 00:46:38;;;;;;;15.55;7.07;;;16.80;99.90;;;;;;5032453;28;20348;-68
2022/10/29 00:49:04;;;;;;;21.13;7.55;;;16.80;99.90;;;;;;5033862;28;20076;-69
2022/10/29 00:51:31;;;;;;;15.38;6.90;;;16.80;99.90;;;;;;5033890;28;20036;-69
2022/10/29 00:54:02;;;;;;;14.85;6.97;;;16.70;99.90;;;;;;5033868;28;20033;-69
2022/10/29 00:56:33;;;;;;;16.90;6.75;;;16.70;99.90;;;;;;5034305;28;20025;-68
2022/10/29 00:59:02;;;;;;;24.20;6.57;;;16.70;99.90;;;;;;5033702;28;20114;-69
2022/10/29 01:01:28;;;;;;;17.27;7.43;;;16.70;99.90;;;;;;5034826;28;20044;-69
2022/10/29 01:03:54;;;;;;;18.05;6.88;;;16.70;99.90;;;;;;5033702;28;20461;-70
2022/10/29 01:06:22;;;;;;;18.02;6.15;;;16.70;99.90;;;;;;5033295;28;20037;-70
2022/10/29 01:08:48;;;;;;;17.95;7.22;;;16.70;99.90;;;;;;5033298;28;20228;-69
2022/10/29 01:11:34;;;;;;;18.80;7.22;;;16.70;99.90;;;;;;5033818;28;20029;-70
2022/10/29 01:14:25;;;;;;;14.85;6.13;;;16.70;99.90;;;;;;5019301;28;20508;-70
2022/10/29 01:16:54;;;;;;;18.73;6.88;;;16.60;99.90;;;;;;5032138;28;20030;-69
2022/10/29 01:20:10;;;;;;;17.20;6.93;;;16.60;99.90;;;;;;5033537;28;20059;-69
2022/10/29 01:23:11;;;;;;;13.73;6.28;;;16.60;99.90;;;;;;5033224;28;20029;-70
2022/10/29 01:26:12;;;;;;;15.88;6.82;;;16.60;99.90;;;;;;5033342;28;20030;-69
2022/10/29 01:29:04;;;;;;;18.77;6.95;;;16.60;99.90;;;;;;5031874;28;20043;-69
2022/10/29 01:31:30;;;;;;;20.27;6.85;;;16.50;99.90;;;;;;5047539;22;20133;-64
2022/10/29 01:34:16;;;;;;;17.45;6.82;;;16.50;99.90;;;;;;5032895;28;20093;-64
2022/10/29 01:36:58;;;;;;;17.42;6.95;;;16.50;99.90;;;;;;5032726;28;20028;-64
2022/10/29 01:39:49;;;;;;;19.67;6.75;;;16.50;99.90;;;;;;5032626;28;20466;-65
2022/10/29 01:42:50;;;;;;;23.17;7.38;;;16.50;99.90;;;;;;5032863;28;20033;-64
2022/10/29 01:45:34;;;;;;;17.55;6.20;;;16.50;99.90;;;;;;5048862;28;20037;-64
2022/10/29 01:48:13;;;;;;;14.20;6.65;;;16.50;99.90;;;;;;5052538;28;20029;-64
2022/10/29 01:50:43;;;;;;;18.85;6.65;;;16.50;99.90;;;;;;5034554;28;20040;-64
2022/10/29 01:53:09;;;;;;;16.65;7.10;;;16.50;99.90;;;;;;5052495;28;20099;-64
2022/10/29 01:55:36;;;;;;;18.45;7.57;;;16.50;99.90;;;;;;5052565;28;20033;-65
2022/10/29 01:58:04;;;;;;;20.35;7.13;;;16.40;99.90;;;;;;5052358;28;20029;-65
2022/10/29 02:00:44;;;;;;;14.80;6.57;;;16.40;99.90;;;;;;5052240;28;20025;-65
2022/10/29 02:03:32;;;;;;;20.27;6.88;;;16.40;99.90;;;;;;5052505;28;20665;-65
2022/10/29 02:06:43;;;;;;;18.88;7.05;;;16.40;99.90;;;;;;5052223;28;20037;-64
2022/10/29 02:09:40;;;;;;;17.42;7.53;;;16.30;99.90;;;;;;5014081;28;20393;-65
2022/10/29 02:12:20;;;;;;;18.38;7.45;;;16.30;99.90;;;;;;5052350;28;20111;-65
2022/10/29 02:14:55;;;;;;;18.48;7.35;;;16.30;99.90;;;;;;5052337;28;20036;-65
2022/10/29 02:17:22;;;;;;;21.80;7.45;;;16.30;99.90;;;;;;5052287;28;20028;-64
2022/10/29 02:19:48;;;;;;;16.23;6.75;;;16.20;99.90;;;;;;5051324;28;20033;-65
2022/10/29 02:22:14;;;;;;;19.58;7.15;;;16.20;99.90;;;;;;5051747;28;20025;-65
2022/10/29 02:24:40;;;;;;;12.95;7.00;;;16.20;99.90;;;;;;5052057;28;20032;-64
2022/10/29 02:27:06;;;;;;;13.75;6.35;;;16.20;99.90;;;;;;5052298;28;20028;-65
2022/10/29 02:29:33;;;;;;;21.45;7.05;;;16.20;99.90;;;;;;5051979;28;20028;-64
2022/10/29 02:31:59;;;;;;;17.58;6.72;;;16.10;99.90;;;;;;5051805;28;20037;-64
2022/10/29 02:34:25;;;;;;;16.33;7.28;;;16.10;99.90;;;;;;5051955;28;20440;-64
2022/10/29 02:36:50;;;;;;;16.35;7.32;;;16.10;99.90;;;;;;5051669;28;20765;-65
2022/10/29 02:39:16;;;;;;;18.20;6.53;;;16.10;99.90;;;;;;5051460;28;20393;-64
2022/10/29 02:41:42;;;;;;;16.80;6.97;;;16.10;99.90;;;;;;5051900;28;20051;-65
2022/10/29 02:44:08;;;;;;;17.80;6.47;;;16.10;99.90;;;;;;5051740;28;20375;-64
2022/10/29 02:46:38;;;;;;;17.70;6.90;;;16.10;99.90;;;;;;5051624;28;20027;-65
2022/10/29 02:49:05;;;;;;;20.73;6.93;;;16.10;99.90;;;;;;5051593;28;20036;-64
2022/10/29 02:51:31;;;;;;;18.42;6.47;;;16.00;99.90;;;;;;5051425;28;20074;-65
2022/10/29 02:53:57;;;;;;;14.07;6.50;;;16.00;99.90;;;;;;5052064;28;20409;-65
2022/10/29 02:56:23;;;;;;;21.48;7.13;;;16.00;99.90;;;;;;5051469;28;20100;-64
2022/10/29 02:58:50;;;;;;;15.20;6.43;;;16.00;99.90;;;;;;5051227;28;20504;-64
2022/10/29 03:01:16;;;;;;;18.58;7.65;;;16.00;99.90;;;;;;5051160;28;20090;-64
2022/10/29 03:03:41;;;;;;;20.48;7.55;;;16.00;99.90;;;;;;5051223;28;20483;-64
2022/10/29 03:06:16;;;;;;;18.83;7.32;;;15.90;99.90;;;;;;5051391;28;20029;-65
2022/10/29 03:08:42;;;;;;;17.40;7.18;;;16.00;99.90;;;;;;5051421;28;20048;-65
2022/10/29 03:11:08;;;;;;;16.25;6.07;;;16.00;99.90;;;;;;5051119;28;20346;-64
2022/10/29 03:13:34;;;;;;;15.90;7.03;;;15.90;99.90;;;;;;5051365;28;20032;-65
2022/10/29 03:16:01;;;;;;;18.17;6.72;;;15.90;99.90;;;;;;5033167;28;20112;-64
2022/10/29 03:18:27;;;;;;;18.25;7.03;;;15.90;99.90;;;;;;5051657;28;20064;-65
2022/10/29 03:20:53;;;;;;;16.23;6.82;;;15.90;99.90;;;;;;5050940;28;20029;-64
2022/10/29 03:23:19;;;;;;;18.00;6.78;;;15.90;99.90;;;;;;5050991;28;20481;-64
2022/10/29 03:25:53;;;;;;;17.23;7.50;;;15.90;99.90;;;;;;5051188;28;20492;-64
2022/10/29 03:28:23;;;;;;;18.63;7.03;;;15.90;99.90;;;;;;5051233;28;20021;-64
2022/10/29 03:30:49;;;;;;;19.75;6.93;;;15.80;99.90;;;;;;5050608;28;20037;-64
2022/10/29 03:33:15;;;;;;;17.17;6.70;;;15.90;99.90;;;;;;5050508;28;20481;-65
2022/10/29 03:35:41;;;;;;;19.15;6.93;;;15.90;99.90;;;;;;5050831;28;20033;-65
2022/10/29 03:38:07;;;;;;;17.60;7.05;;;15.90;99.90;;;;;;5050904;28;20067;-64
2022/10/29 03:40:33;;;;;;;19.23;7.25;;;15.90;99.90;;;;;;5050567;28;20039;-64
2022/10/29 03:42:59;;;;;;;16.02;7.10;;;15.90;99.90;;;;;;5050772;28;20039;-65
2022/10/29 03:45:25;;;;;;;21.10;7.13;;;15.90;99.90;;;;;;5050751;28;20471;-65
2022/10/29 03:47:51;;;;;;;13.73;6.63;;;15.90;99.90;;;;;;5050942;28;20032;-65
2022/10/29 03:50:17;;;;;;;14.43;6.82;;;15.80;99.90;;;;;;5050574;28;20493;-64
2022/10/29 03:52:43;;;;;;;15.68;7.10;;;15.90;99.90;;;;;;5050533;28;20062;-64
2022/10/29 03:55:09;;;;;;;19.75;7.43;;;15.90;99.90;;;;;;5050665;28;20044;-65
2022/10/29 03:57:35;;;;;;;20.42;7.32;;;15.90;99.90;;;;;;5050560;28;20067;-64
2022/10/29 04:00:03;;;;;;;17.45;6.95;;;15.90;99.90;;;;;;5050591;28;20287;-65
2022/10/29 04:02:38;;;;;;;15.48;6.68;;;15.80;99.90;;;;;;5050728;28;20120;-64
2022/10/29 04:05:04;;;;;;;18.10;7.03;;;15.90;99.90;;;;;;5050682;28;20025;-65
2022/10/29 04:07:30;;;;;;;25.52;8.07;;;15.90;99.90;;;;;;5050653;28;20029;-64
2022/10/29 04:09:56;;;;;;;19.83;6.70;;;15.90;99.90;;;;;;5050357;28;20559;-65
2022/10/29 04:12:22;;;;;;;20.20;7.72;;;15.90;99.90;;;;;;5050386;28;20103;-65
2022/10/29 04:14:48;;;;;;;21.77;7.53;;;15.90;99.90;;;;;;5050333;28;20083;-65
2022/10/29 04:17:14;;;;;;;18.05;6.85;;;15.90;99.90;;;;;;5050330;28;20693;-65
2022/10/29 04:19:40;;;;;;;20.00;7.80;;;15.90;99.90;;;;;;5050242;28;20028;-65
2022/10/29 04:22:06;;;;;;;18.48;7.03;;;15.90;99.90;;;;;;5050518;28;20036;-65
2022/10/29 04:24:32;;;;;;;19.40;7.20;;;15.90;99.90;;;;;;5050404;28;20107;-65
2022/10/29 04:26:58;;;;;;;20.38;7.68;;;15.90;99.90;;;;;;5050486;28;20044;-64
2022/10/29 04:29:24;;;;;;;16.65;7.25;;;15.90;99.90;;;;;;5050149;28;20049;-65
2022/10/29 04:31:50;;;;;;;23.10;8.07;;;15.90;99.90;;;;;;5050073;28;20028;-65
2022/10/29 04:34:16;;;;;;;22.52;8.18;;;16.00;99.90;;;;;;5050469;28;20025;-65
2022/10/29 04:36:42;;;;;;;15.63;7.22;;;16.10;99.90;;;;;;5050394;28;20025;-65
2022/10/29 04:39:08;;;;;;;16.08;6.28;;;16.10;99.90;;;;;;5050472;28;20115;-65
2022/10/29 04:41:34;;;;;;;16.70;6.72;;;16.20;99.90;;;;;;5050230;28;20389;-64
2022/10/29 04:44:01;;;;;;;17.60;7.68;;;16.10;99.90;;;;;;5051554;28;20029;-65
2022/10/29 04:46:27;;;;;;;18.20;7.55;;;16.10;99.90;;;;;;5053832;28;20040;-65
2022/10/29 04:48:53;;;;;;;21.50;7.22;;;16.10;99.90;;;;;;5054088;28;20523;-65
2022/10/29 04:51:21;;;;;;;20.88;7.88;;;16.10;99.90;;;;;;5054056;28;20140;-65
2022/10/29 04:53:48;;;;;;;16.00;6.97;;;16.00;99.90;;;;;;5053527;28;20037;-65
2022/10/29 04:56:14;;;;;;;17.90;7.10;;;16.00;99.90;;;;;;5053795;28;20506;-65
2022/10/29 04:58:40;;;;;;;18.80;6.85;;;16.00;99.90;;;;;;5053743;28;20044;-65
2022/10/29 05:01:06;;;;;;;16.45;7.05;;;16.10;99.90;;;;;;5053533;28;20033;-65
2022/10/29 05:03:32;;;;;;;14.77;6.68;;;16.10;99.90;;;;;;5035727;28;20118;-64
2022/10/29 05:06:01;;;;;;;16.48;7.00;;;16.10;99.90;;;;;;5053437;28;20393;-64
2022/10/29 05:08:27;;;;;;;17.80;7.18;;;16.10;99.90;;;;;;5053554;28;20033;-64
2022/10/29 05:10:53;;;;;;;15.88;6.88;;;16.10;99.90;;;;;;5053327;28;20044;-65
2022/10/29 05:13:19;;;;;;;14.27;7.18;;;16.10;99.90;;;;;;5053245;28;20029;-64
2022/10/29 05:15:49;;;;;;;15.18;6.18;;;16.10;99.90;;;;;;5053476;28;20033;-65
2022/10/29 05:18:15;;;;;;;14.52;6.70;;;16.10;99.90;;;;;;5053430;28;20029;-65
2022/10/29 05:20:41;;;;;;;15.65;6.68;;;16.10;99.90;;;;;;5053231;28;20033;-64
2022/10/29 05:23:09;;;;;;;13.18;6.78;;;16.20;99.90;;;;;;5053205;28;20078;-64
2022/10/29 05:25:38;;;;;;;17.60;6.83;;;16.20;99.90;;;;;;5053278;28;20087;-64
2022/10/29 05:28:06;;;;;;;15.32;6.47;;;16.20;99.90;;;;;;5035121;28;20268;-65
2022/10/29 05:30:33;;;;;;;21.25;7.20;;;16.20;99.90;;;;;;5053127;28;20120;-64
2022/10/29 05:32:59;;;;;;;17.13;7.20;;;16.30;99.90;;;;;;5052888;28;20025;-65
2022/10/29 05:35:25;;;;;;;12.65;6.88;;;16.20;99.90;;;;;;5053207;28;20044;-65
2022/10/29 05:37:53;;;;;;;17.30;7.30;;;16.20;99.90;;;;;;5053070;28;20033;-64
2022/10/29 05:40:23;;;;;;;13.68;6.60;;;16.20;99.90;;;;;;5052759;28;20041;-64
2022/10/29 05:42:49;;;;;;;20.73;7.05;;;16.20;99.90;;;;;;5053006;28;20113;-64
2022/10/29 05:45:15;;;;;;;14.60;6.78;;;16.20;99.90;;;;;;5052883;28;20033;-64
2022/10/29 05:47:41;;;;;;;19.00;6.93;;;16.20;99.90;;;;;;5052974;28;20025;-64
2022/10/29 05:50:08;;;;;;;17.40;7.00;;;16.20;99.90;;;;;;5034768;28;20123;-66
2022/10/29 05:52:34;;;;;;;19.05;7.97;;;16.20;99.90;;;;;;5052637;28;20413;-66
2022/10/29 05:55:00;;;;;;;14.07;7.05;;;16.20;99.90;;;;;;5051723;28;20221;-66
2022/10/29 05:57:27;;;;;;;22.35;8.27;;;16.20;99.90;;;;;;5052604;28;20029;-66
2022/10/29 05:59:53;;;;;;;14.27;6.10;;;16.20;99.90;;;;;;5052689;28;20378;-66
2022/10/29 06:02:19;;;;;;;12.45;6.03;;;16.20;99.90;;;;;;5052317;28;20021;-66
2022/10/29 06:04:45;;;;;;;12.43;6.47;;;16.20;99.90;;;;;;5052598;28;20021;-65
2022/10/29 06:07:11;;;;;;;14.57;5.85;;;16.30;99.90;;;;;;5052219;28;20035;-66
2022/10/29 06:09:37;;;;;;;11.05;5.55;;;16.20;99.90;;;;;;5052602;28;20037;-66
2022/10/29 06:12:04;;;;;;;19.38;6.88;;;16.30;99.90;;;;;;5052153;28;20036;-66
2022/10/29 06:14:30;;;;;;;14.88;6.10;;;16.30;99.90;;;;;;5052325;28;20029;-65
2022/10/29 06:16:56;;;;;;;13.43;6.03;;;16.30;99.90;;;;;;5052761;28;20503;-66
2022/10/29 06:19:22;;;;;;;19.80;6.10;;;16.30;99.90;;;;;;5052486;28;20037;-65
2022/10/29 06:21:48;;;;;;;13.60;6.43;;;16.40;99.90;;;;;;5051958;28;20037;-66
2022/10/29 06:24:14;;;;;;;15.98;6.88;;;16.30;99.90;;;;;;5034484;28;20472;-65
2022/10/29 06:26:40;;;;;;;14.55;6.55;;;16.40;99.90;;;;;;5051907;28;20036;-66
2022/10/29 06:29:06;;;;;;;16.45;6.63;;;16.40;99.90;;;;;;5051795;28;20570;-65
2022/10/29 06:31:32;;;;;;;15.95;6.75;;;16.40;99.90;;;;;;5051800;28;20342;-65
2022/10/29 06:33:58;;;;;;;14.52;6.10;;;16.40;99.90;;;;;;5033919;28;20037;-65
2022/10/29 06:36:24;;;;;;;16.58;6.55;;;16.40;99.90;;;;;;5051807;28;20033;-65
2022/10/29 06:38:50;;;;;;;13.93;6.20;;;16.40;99.90;;;;;;5051833;28;20024;-65
2022/10/29 06:41:16;;;;;;;15.15;6.07;;;16.40;99.90;;;;;;5051677;28;20062;-65
2022/10/29 06:43:42;;;;;;;15.18;6.32;;;16.50;99.90;;;;;;5051768;28;20033;-65
2022/10/29 06:46:08;;;;;;;13.27;6.70;;;16.50;99.90;;;;;;5051681;28;20032;-66
2022/10/29 06:48:34;;;;;;;15.95;5.60;;;16.50;99.90;;;;;;5051790;28;20025;-66
2022/10/29 06:51:00;;;;;;;13.82;6.28;;;16.50;99.90;;;;;;5051442;28;20486;-65
2022/10/29 06:53:26;;;;;;;15.68;6.07;;;16.50;99.90;;;;;;5051592;28;20100;-65
2022/10/29 06:55:52;;;;;;;13.18;6.13;;;16.50;99.90;;;;;;5051592;28;20036;-66
2022/10/29 06:58:20;;;;;;;16.80;6.47;;;16.50;99.90;;;;;;5051619;28;20033;-65
2022/10/29 07:00:46;;;;;;;14.07;6.03;;;16.50;99.90;;;;;;5051237;28;20032;-65
2022/10/29 07:03:14;;;;;;;16.17;6.25;;;16.50;99.90;;;;;;5051440;28;20021;-65
2022/10/29 07:05:40;;;;;;;18.55;6.78;;;16.50;99.90;;;;;;5051245;28;20116;-65
2022/10/29 07:08:07;;;;;;;18.23;6.68;;;16.60;99.90;;;;;;5051424;28;20021;-65
2022/10/29 07:10:33;;;;;;;16.52;6.43;;;16.50;99.90;;;;;;5051477;28;20037;-66
2022/10/29 07:13:00;;;;;;;15.85;6.07;;;16.60;99.90;;;;;;5051458;28;20025;-66
2022/10/29 07:15:26;;;;;;;15.43;7.22;;;16.50;99.90;;;;;;5051699;28;20072;-65
2022/10/29 07:18:03;;;;;;;15.70;6.18;;;16.60;99.90;;;;;;5051328;28;20036;-66
2022/10/29 07:20:31;;;;;;;12.95;5.90;;;16.60;99.90;;;;;;5050988;28;20649;-65
2022/10/29 07:22:58;;;;;;;13.45;6.57;;;16.60;99.90;;;;;;5051111;28;20024;-65
2022/10/29 07:25:24;;;;;;;15.52;6.22;;;16.60;99.90;;;;;;5033472;28;20025;-66
2022/10/29 07:27:51;;;;;;;14.15;5.97;;;16.60;99.90;;;;;;5051103;28;20029;-66
2022/10/29 07:30:17;;;;;;;18.73;6.82;;;16.60;99.90;;;;;;5050967;28;20036;-66
2022/10/29 07:32:43;;;;;;;14.48;5.72;;;16.70;99.90;;;;;;5048731;23;20052;-69
2022/10/29 07:35:09;;;;;;;16.58;6.45;;;16.70;99.90;;;;;;5031124;28;20025;-68
2022/10/29 07:37:35;;;;;;;14.45;6.45;;;16.70;99.90;;;;;;5031021;28;20336;-69
2022/10/29 07:40:01;;;;;;;15.00;6.40;;;16.70;99.90;;;;;;5030651;28;20060;-68
2022/10/29 07:42:29;;;;;;;12.50;5.65;;;16.70;99.90;;;;;;5031069;28;20076;-68
2022/10/29 07:44:55;;;;;;;18.17;6.37;;;16.70;99.90;;;;;;5030878;28;20120;-69
2022/10/29 07:47:21;;;;;;;12.05;5.90;;;16.80;99.90;;;;;;5029347;28;20068;-69
2022/10/29 07:49:47;;;;;;;16.63;5.43;;;16.80;99.90;;;;;;5030670;28;20149;-69
2022/10/29 07:52:13;;;;;;;13.02;5.55;;;16.80;99.90;;;;;;5030600;28;20497;-69
2022/10/29 07:54:38;;;;;;;16.88;5.97;;;16.80;99.90;;;;;;5029486;28;20072;-69
2022/10/29 07:57:04;;;;;;;12.32;5.43;;;16.80;99.90;;;;;;5030604;28;20040;-70
2022/10/29 07:59:30;;;;;;;14.48;5.53;;;16.80;99.90;;;;;;5029236;28;20025;-69
2022/10/29 08:01:56;;;;;;;17.08;5.78;;;16.90;99.90;;;;;;5029380;28;20038;-72
2022/10/29 08:04:22;;;;;;;11.57;4.82;;;16.90;99.90;;;;;;5030294;28;20034;-69
2022/10/29 08:06:48;;;;;;;12.68;5.15;;;16.90;99.90;;;;;;5030507;28;20116;-69
2022/10/29 08:09:14;;;;;;;15.40;6.10;;;16.90;99.90;;;;;;5031018;28;20017;-70
2022/10/29 08:11:40;;;;;;;14.38;5.28;;;16.90;99.90;;;;;;5030613;28;20045;-69
2022/10/29 08:14:06;;;;;;;13.20;5.47;;;16.90;99.90;;;;;;5029282;28;20564;-70
2022/10/29 08:16:32;;;;;;;12.13;5.25;;;17.00;99.90;;;;;;5029086;28;20394;-69
2022/10/29 08:18:58;;;;;;;9.35;4.50;;;17.00;99.90;;;;;;5031784;28;20111;-71
2022/10/29 08:21:26;;;;;;;13.73;5.47;;;17.00;99.90;;;;;;5034171;28;20474;-71
2022/10/29 08:23:52;;;;;;;11.50;4.70;;;17.00;99.90;;;;;;5034564;28;20080;-69
2022/10/29 08:26:19;;;;;;;9.98;4.85;;;17.00;99.90;;;;;;5034294;28;20025;-70
2022/10/29 08:28:45;;;;;;;11.38;4.55;;;17.00;99.90;;;;;;5034351;28;20029;-70
2022/10/29 08:31:11;;;;;;;13.25;4.82;;;17.00;99.90;;;;;;5034039;28;20088;-70
2022/10/29 08:33:36;;;;;;;10.45;4.40;;;17.10;99.90;;;;;;5034033;28;20030;-70
2022/10/29 08:36:02;;;;;;;9.73;4.82;;;17.10;99.90;;;;;;5034254;28;20033;-71
2022/10/29 08:38:28;;;;;;;12.82;4.40;;;17.10;99.90;;;;;;5034138;28;20043;-70
2022/10/29 08:41:25;;;;;;;10.80;4.93;;;17.20;99.90;;;;;;5033755;28;20389;-70
2022/10/29 08:44:03;;;;;;;10.73;4.32;;;17.20;99.90;;;;;;5033769;28;20474;-69
2022/10/29 08:46:55;;;;;;;12.95;5.07;;;17.30;99.90;;;;;;5033810;28;20029;-71
2022/10/29 08:49:33;;;;;;;13.68;4.72;;;17.30;99.90;;;;;;5033722;28;20108;-70
2022/10/29 08:52:07;;;;;;;8.80;4.00;;;17.30;99.90;;;;;;5033757;28;20037;-70
2022/10/29 08:54:37;;;;;;;11.23;4.32;;;17.40;99.90;;;;;;5033859;28;20305;-70
2022/10/29 08:57:14;;;;;;;11.40;4.28;;;17.40;99.90;;;;;;5033518;28;20478;-71
2022/10/29 09:00:02;;;;;;;9.25;4.47;;;17.50;99.90;;;;;;5033492;28;20402;-70
2022/10/29 09:02:29;;;;;;;10.95;4.70;;;17.50;99.90;;;;;;5033842;28;20061;-70
2022/10/29 09:04:55;;;;;;;14.13;4.50;;;17.50;99.90;;;;;;5032187;28;20033;-70
2022/10/29 09:07:52;;;;;;;14.07;5.25;;;17.60;99.90;;;;;;5033439;28;20409;-70
2022/10/29 09:10:28;;;;;;;10.20;4.65;;;17.60;99.90;;;;;;5032067;28;20033;-70
2022/10/29 09:13:13;;;;;;;11.02;3.90;;;17.60;99.90;;;;;;5033405;28;20406;-70
2022/10/29 09:15:53;;;;;;;13.38;4.20;;;17.70;99.90;;;;;;5032135;28;20421;-69
2022/10/29 09:18:31;;;;;;;13.10;4.50;;;17.70;99.90;;;;;;5033230;28;20033;-70
2022/10/29 09:21:23;;;;;;;14.23;4.73;;;17.70;99.90;;;;;;5033460;28;20482;-70
2022/10/29 09:24:18;;;;;;;9.25;3.80;;;17.80;99.90;;;;;;5033243;28;20469;-70
2022/10/29 09:26:57;;;;;;;12.27;4.65;;;17.80;99.90;;;;;;5033271;28;20091;-70
2022/10/29 09:29:45;;;;;;;11.18;4.60;;;17.80;99.90;;;;;;5032912;28;20036;-71
2022/10/29 09:32:23;;;;;;;13.30;4.50;;;17.90;99.90;;;;;;5033017;28;20065;-70
2022/10/29 09:34:55;;;;;;;10.27;4.45;;;17.90;99.90;;;;;;5033250;28;20253;-70
2022/10/29 09:37:28;;;;;;;10.68;4.32;;;17.90;99.90;;;;;;5032908;28;20470;-70
2022/10/29 09:39:56;;;;;;;10.63;4.80;;;17.90;99.90;;;;;;5032647;28;20233;-70
2022/10/29 09:42:37;;;;;;;13.25;4.47;;;17.90;99.90;;;;;;5032832;28;20540;-69
2022/10/29 09:45:08;;;;;;;10.52;5.28;;;18.00;99.90;;;;;;5033061;28;20544;-69
2022/10/29 09:48:00;;;;;;;10.90;4.55;;;18.00;99.90;;;;;;5032822;28;20398;-70
2022/10/29 09:50:35;;;;;;;11.60;4.72;;;18.00;99.90;;;;;;5032720;28;20043;-69
2022/10/29 09:53:01;;;;;;;18.30;6.10;;;18.10;99.90;;;;;;5032766;28;20033;-69
2022/10/29 09:55:42;;;;;;;20.15;8.13;;;18.10;99.90;;;;;;5032873;28;20386;-69
2022/10/29 09:58:26;;;;;;;18.45;7.35;;;18.10;99.90;;;;;;5032641;28;20128;-71
2022/10/29 10:00:53;;;;;;;18.40;6.72;;;18.20;99.90;;;;;;5032473;28;20030;-69
2022/10/29 10:03:26;;;;;;;21.58;6.15;;;18.10;99.90;;;;;;5014491;28;20030;-70
2022/10/29 10:06:02;;;;;;;16.88;5.68;;;18.20;99.90;;;;;;5031366;28;20401;-69
2022/10/29 10:08:29;;;;;;;14.57;5.43;;;18.30;99.90;;;;;;5032307;28;20036;-72
2022/10/29 10:11:05;;;;;;;12.82;5.00;;;18.30;99.90;;;;;;5032346;28;20029;-69
2022/10/29 10:13:35;;;;;;;12.02;4.70;;;18.30;99.90;;;;;;5032323;28;20030;-69
2022/10/29 10:16:04;;;;;;;10.52;5.43;;;18.30;99.90;;;;;;5032257;28;20091;-71
2022/10/29 10:18:29;;;;;;;;;;;18.30;99.90;;;;;;5032642;28;20040;-70
2022/10/29 10:21:02;;;;;;;11.85;5.95;;;18.30;99.90;;;;;;5032139;28;19917;-70
2022/10/29 10:23:52;;;;;;;19.40;11.63;;;18.30;99.90;;;;;;5032009;28;20022;-70
2022/10/29 10:26:43;;;;;;;17.60;10.20;;;18.30;99.90;;;;;;5032122;28;20401;-71
2022/10/29 10:29:19;;;;;;;13.88;6.13;;;18.30;99.90;;;;;;5032119;28;20104;-69
2022/10/29 10:32:09;;;;;;;15.23;5.93;;;18.40;99.90;;;;;;5031632;28;20029;-72
2022/10/29 10:34:37;;;;;;;13.98;4.90;;;18.40;99.90;;;;;;5032066;28;20091;-69
2022/10/29 10:37:09;;;;;;;8.77;4.60;;;18.50;99.90;;;;;;5031853;28;20501;-70
2022/10/29 10:39:40;;;;;;;10.18;4.18;;;18.60;99.90;;;;;;5031802;28;20066;-69
2022/10/29 10:42:17;;;;;;;13.10;4.38;;;18.60;99.90;;;;;;5031259;28;20099;-68
2022/10/29 10:45:00;;;;;;;12.77;4.25;;;18.70;99.90;;;;;;5031687;28;20036;-69
2022/10/29 10:47:30;;;;;;;14.63;4.30;;;18.70;99.90;;;;;;5031928;28;20371;-69
2022/10/29 10:50:21;;;;;;;12.90;4.07;;;18.80;99.90;;;;;;5031743;28;20380;-69
2022/10/29 10:52:48;;;;;;;10.43;4.30;;;18.80;99.90;;;;;;5031639;28;20029;-69
2022/10/29 10:55:29;;;;;;;15.88;4.22;;;18.90;99.90;;;;;;5031510;28;20119;-69
2022/10/29 10:58:13;;;;;;;13.82;4.70;;;18.90;99.90;;;;;;5032014;28;20279;-69
2022/10/29 11:01:05;;;;;;;12.45;4.82;;;18.90;99.90;;;;;;5031226;28;20037;-69
2022/10/29 11:03:47;;;;;;;12.75;5.30;;;19.00;99.90;;;;;;5025902;28;20268;-69
2022/10/29 11:06:24;;;;;;;12.05;4.72;;;18.90;99.90;;;;;;5031334;28;20025;-69
2022/10/29 11:08:57;;;;;;;12.05;4.72;;;19.00;99.90;;;;;;5031489;28;20033;-69
2022/10/29 11:11:43;;;;;;;11.73;4.50;;;19.00;99.90;;;;;;5031343;28;20037;-69
2022/10/29 11:14:35;;;;;;;13.35;4.45;;;19.00;99.90;;;;;;5031148;28;20092;-69
2022/10/29 11:17:07;;;;;;;9.25;4.28;;;19.00;99.90;;;;;;5031163;28;20045;-69
2022/10/29 11:19:43;;;;;;;12.57;4.43;;;19.00;99.90;;;;;;5030798;28;20038;-68
2022/10/29 11:22:30;;;;;;;12.38;4.35;;;19.00;99.90;;;;;;5031159;28;20022;-69
2022/10/29 11:25:14;;;;;;;13.90;5.88;;;19.10;99.90;;;;;;5031466;28;20052;-68
2022/10/29 11:27:52;;;;;;;11.93;4.43;;;19.10;99.90;;;;;;5031056;28;20036;-69
2022/10/29 11:30:19;;;;;;;11.48;4.80;;;19.10;99.90;;;;;;5031020;28;20488;-68
2022/10/29 11:33:03;;;;;;;14.25;4.55;;;19.10;99.90;;;;;;5030690;28;20033;-68
2022/10/29 11:35:39;;;;;;;10.98;4.57;;;19.10;99.90;;;;;;5031250;28;20044;-68
2022/10/29 11:38:30;;;;;;;10.73;5.20;;;19.10;99.90;;;;;;5030883;28;20029;-69
2022/10/29 11:41:20;;;;;;;13.02;5.63;;;19.10;99.90;;;;;;5030811;28;20409;-69
2022/10/29 11:43:47;;;;;;;11.60;5.57;;;19.10;99.90;;;;;;5030940;28;20026;-69
2022/10/29 11:46:50;;;;;;;13.88;5.63;;;19.10;99.90;;;;;;5029624;28;20120;-69
2022/10/29 11:49:24;;;;;;;11.60;5.30;;;19.10;99.90;;;;;;5030815;28;20021;-68
2022/10/29 11:52:07;;;;;;;12.90;5.47;;;19.10;99.90;;;;;;5030627;28;20026;-69
2022/10/29 11:54:47;;;;;;;14.05;5.13;;;19.00;99.90;;;;;;5035112;28;20108;-69
2022/10/29 11:57:43;;;;;;;11.98;5.07;;;19.00;99.90;;;;;;5034973;28;20057;-68
2022/10/29 12:00:09;;;;;;;12.82;5.53;;;19.10;99.90;;;;;;5018780;28;20049;-69
2022/10/29 12:03:20;;;;;;;10.02;4.80;;;19.10;99.90;;;;;;5034932;28;20104;-69
2022/10/29 12:06:01;;;;;;;13.95;5.72;;;19.10;99.90;;;;;;5034787;28;20206;-69
2022/10/29 12:09:04;;;;;;;12.88;4.75;;;19.10;99.90;;;;;;5034764;28;20117;-69
2022/10/29 12:11:47;;;;;;;11.77;5.78;;;19.10;99.90;;;;;;5034649;28;20029;-69
2022/10/29 12:14:37;;;;;;;15.07;5.97;;;19.00;99.90;;;;;;5034651;28;20033;-69
2022/10/29 12:17:19;;;;;;;13.98;6.10;;;19.10;99.90;;;;;;5034609;28;20029;-69
2022/10/29 12:20:00;;;;;;;14.60;5.95;;;19.10;99.90;;;;;;5034268;28;20485;-69
2022/10/29 12:22:47;;;;;;;11.00;4.72;;;19.20;99.90;;;;;;5034557;28;20064;-69
2022/10/29 12:25:29;;;;;;;15.20;5.38;;;19.20;99.90;;;;;;5034546;28;20113;-69
2022/10/29 12:28:10;;;;;;;15.18;5.53;;;19.20;99.90;;;;;;5034509;28;20047;-69
2022/10/29 12:31:03;;;;;;;14.65;5.47;;;19.20;99.90;;;;;;5033990;28;20030;-69
2022/10/29 12:33:44;;;;;;;9.93;5.55;;;19.20;99.90;;;;;;5034235;28;20045;-69
2022/10/29 12:36:21;;;;;;;14.63;5.13;;;19.20;99.90;;;;;;5032845;28;20029;-69
2022/10/29 12:38:54;;;;;;;18.08;6.20;;;19.20;99.90;;;;;;5032691;28;20029;-69
2022/10/29 12:41:24;;;;;;;10.77;5.00;;;19.30;99.90;;;;;;5034102;28;20045;-68
2022/10/29 12:43:52;;;;;;;10.95;5.72;;;19.40;99.90;;;;;;5033963;28;20025;-69
2022/10/29 12:46:19;;;;;;;13.18;4.88;;;19.50;99.90;;;;;;5034234;28;20100;-69
2022/10/29 12:49:16;;;;;;;12.57;4.47;;;19.60;99.90;;;;;;5034216;28;20063;-69
2022/10/29 12:51:53;;;;;;;10.70;4.60;;;19.70;99.90;;;;;;5033791;28;20028;-69
2022/10/29 12:54:37;;;;;;;12.10;4.80;;;19.80;99.90;;;;;;5033954;28;20260;-68
2022/10/29 12:57:13;;;;;;;12.63;4.93;;;19.80;99.90;;;;;;5033779;28;20037;-69
2022/10/29 12:59:41;;;;;;;14.65;4.78;;;19.80;99.90;;;;;;5033963;28;20405;-69
2022/10/29 13:02:37;;;;;;;14.95;4.93;;;19.80;99.90;;;;;;5033829;28;20040;-69
2022/10/29 13:05:08;;;;;;;12.38;4.30;;;19.80;99.90;;;;;;5031970;28;20238;-69